Time;durP1;ratioP1;P1;durP2;ratioP2;P2;SDS_P1;SDS_P2;PMS_P1;PMS_P2;Temp;Humidity;BMP_temperature;BMP_pressure;BME280_temperature;BME280_humidity;BME280_pressure;Samples;Min_cycle;Max_cycle;Signal;HPM_P1;HPM_P2
2022/11/02 00:01:26;;;;;;;10.73;2.17;;;12.50;99.90;;;;;;5044219;28;20380;-78
2022/11/02 00:03:52;;;;;;;10.55;2.08;;;12.50;99.90;;;;;;5050892;28;20044;-78
2022/11/02 00:06:18;;;;;;;9.15;2.00;;;12.50;99.90;;;;;;5059387;28;20091;-77
2022/11/02 00:08:47;;;;;;;7.20;1.77;;;12.50;99.90;;;;;;5039422;28;20045;-77
2022/11/02 00:11:16;;;;;;;8.70;2.28;;;12.40;99.90;;;;;;5041485;28;20606;-77
2022/11/02 00:13:42;;;;;;;8.90;1.70;;;12.40;99.90;;;;;;5042552;28;20044;-77
2022/11/02 00:16:13;;;;;;;10.88;2.05;;;12.30;99.90;;;;;;5055780;28;20437;-79
2022/11/02 00:18:39;;;;;;;7.07;1.50;;;12.30;99.90;;;;;;5055835;28;20585;-72
2022/11/02 00:21:05;;;;;;;7.97;2.20;;;12.30;99.90;;;;;;5044757;28;20099;-73
2022/11/02 00:23:31;;;;;;;9.95;2.10;;;12.30;99.90;;;;;;5027218;28;20053;-72
2022/11/02 00:26:00;;;;;;;7.75;2.22;;;12.30;99.90;;;;;;5044715;28;20060;-72
2022/11/02 00:28:27;;;;;;;10.00;2.20;;;12.30;99.90;;;;;;5043621;28;20561;-72
2022/11/02 00:30:53;;;;;;;8.60;1.88;;;12.30;99.90;;;;;;5061711;28;20040;-72
2022/11/02 00:33:19;;;;;;;9.35;1.60;;;12.30;99.90;;;;;;5059128;28;20149;-79
2022/11/02 00:35:45;;;;;;;9.32;1.95;;;12.30;99.90;;;;;;5060639;28;20068;-77
2022/11/02 00:38:11;;;;;;;9.75;1.83;;;12.30;99.90;;;;;;5043874;28;20053;-77
2022/11/02 00:40:37;;;;;;;10.98;2.25;;;12.30;99.90;;;;;;5061419;28;20033;-77
2022/11/02 00:43:03;;;;;;;6.97;1.50;;;12.20;99.90;;;;;;5026240;28;20534;-77
2022/11/02 00:45:31;;;;;;;7.13;1.67;;;12.20;99.90;;;;;;5041266;28;20044;-77
2022/11/02 00:47:57;;;;;;;8.30;1.55;;;12.20;99.90;;;;;;5055423;28;20403;-78
2022/11/02 00:50:23;;;;;;;7.63;1.70;;;12.20;99.90;;;;;;5059559;28;20499;-78
2022/11/02 00:52:49;;;;;;;6.93;1.60;;;12.20;99.90;;;;;;5044640;28;20500;-76
2022/11/02 00:55:18;;;;;;;6.85;1.45;;;12.20;99.90;;;;;;5029501;28;20067;-76
2022/11/02 00:57:44;;;;;;;4.43;0.90;;;12.10;99.90;;;;;;5061836;28;20041;-77
2022/11/02 01:00:13;;;;;;;5.30;0.90;;;11.90;99.90;;;;;;5045043;28;20082;-77
2022/11/02 01:02:40;;;;;;;3.28;0.98;;;11.80;99.90;;;;;;5062167;28;20369;-77
2022/11/02 01:05:07;;;;;;;8.63;1.52;;;11.70;99.90;;;;;;5048068;28;20506;-76
2022/11/02 01:07:33;;;;;;;6.65;1.05;;;11.60;99.90;;;;;;5062382;28;20048;-75
2022/11/02 01:09:59;;;;;;;4.90;0.80;;;11.50;99.90;;;;;;5027074;28;20081;-77
2022/11/02 01:12:25;;;;;;;6.72;1.85;;;11.50;99.90;;;;;;5044782;28;20051;-75
2022/11/02 01:14:51;;;;;;;7.30;1.17;;;11.50;99.90;;;;;;5029609;28;20051;-75
2022/11/02 01:17:20;;;;;;;6.00;1.63;;;11.40;99.90;;;;;;5042571;28;20101;-75
2022/11/02 01:19:46;;;;;;;7.82;1.55;;;11.40;99.90;;;;;;5059386;28;20044;-75
2022/11/02 01:22:12;;;;;;;11.10;2.10;;;11.40;99.90;;;;;;5010351;28;20517;-75
2022/11/02 01:24:38;;;;;;;7.38;1.92;;;11.40;99.90;;;;;;5058803;28;20808;-75
2022/11/02 01:27:03;;;;;;;5.60;1.80;;;11.40;99.90;;;;;;5035803;28;20041;-75
2022/11/02 01:29:29;;;;;;;9.43;2.30;;;11.40;99.90;;;;;;5063522;28;20041;-75
2022/11/02 01:31:55;;;;;;;10.88;2.70;;;11.40;99.90;;;;;;5031777;28;20032;-75
2022/11/02 01:34:23;;;;;;;14.75;4.15;;;11.40;99.90;;;;;;5029074;28;20052;-76
2022/11/02 01:36:49;;;;;;;10.77;3.38;;;11.50;99.90;;;;;;5045454;28;20398;-75
2022/11/02 01:39:15;;;;;;;10.85;3.83;;;11.50;99.90;;;;;;5029269;28;20114;-75
2022/11/02 01:41:44;;;;;;;14.27;3.95;;;11.50;99.90;;;;;;5048077;28;20045;-75
2022/11/02 01:44:30;;;;;;;9.10;2.65;;;11.50;99.90;;;;;;5042943;28;20048;-74
2022/11/02 01:47:10;;;;;;;10.93;2.90;;;11.50;99.90;;;;;;5061433;28;20117;-74
2022/11/02 01:49:39;;;;;;;12.05;3.50;;;11.60;99.90;;;;;;5055189;28;20186;-75
2022/11/02 01:52:11;;;;;;;16.75;3.67;;;11.60;99.90;;;;;;5044328;28;20059;-75
2022/11/02 01:54:50;;;;;;;14.00;3.42;;;11.60;99.90;;;;;;5040272;28;20044;-75
2022/11/02 01:57:20;;;;;;;12.73;3.70;;;11.60;99.90;;;;;;5055022;28;20182;-75
2022/11/02 01:59:54;;;;;;;13.30;3.22;;;11.60;99.90;;;;;;5055892;28;20055;-75
2022/11/02 02:02:27;;;;;;;11.48;3.33;;;11.60;99.90;;;;;;5054245;28;20087;-75
2022/11/02 02:05:13;;;;;;;10.05;3.42;;;11.60;99.90;;;;;;5057263;28;20055;-75
2022/11/02 02:07:39;;;;;;;11.07;3.42;;;11.60;99.90;;;;;;5051433;28;20064;-75
2022/11/02 02:10:06;;;;;;;8.85;2.97;;;11.70;99.90;;;;;;5053371;28;20499;-76
2022/11/02 02:12:34;;;;;;;13.65;4.05;;;11.70;99.90;;;;;;5056805;28;20411;-76
2022/11/02 02:15:00;;;;;;;11.73;3.83;;;11.70;99.90;;;;;;5038320;28;20048;-75
2022/11/02 02:17:57;;;;;;;13.13;4.13;;;11.80;99.90;;;;;;5039370;28;20067;-77
2022/11/02 02:20:55;;;;;;;12.00;3.72;;;11.80;99.90;;;;;;5038694;28;20075;-76
2022/11/02 02:23:59;;;;;;;11.55;3.45;;;11.80;99.90;;;;;;5029587;28;20048;-76
2022/11/02 02:26:46;;;;;;;18.17;3.90;;;11.80;99.90;;;;;;5054224;28;20048;-76
2022/11/02 02:29:30;;;;;;;13.60;3.35;;;11.80;99.90;;;;;;5064430;28;20140;-76
2022/11/02 02:32:05;;;;;;;13.10;3.10;;;11.80;99.90;;;;;;5060769;28;20048;-76
2022/11/02 02:34:56;;;;;;;9.50;2.70;;;11.80;99.90;;;;;;5043352;28;20052;-77
2022/11/02 02:37:49;;;;;;;8.73;2.58;;;11.80;99.90;;;;;;5074513;28;20044;-77
2022/11/02 02:40:39;;;;;;;14.63;3.80;;;11.80;99.90;;;;;;5042783;28;20080;-77
2022/11/02 02:43:14;;;;;;;10.27;2.60;;;11.80;99.90;;;;;;5054800;28;20056;-76
2022/11/02 02:45:46;;;;;;;8.80;2.22;;;11.80;99.90;;;;;;5056523;28;20078;-77
2022/11/02 02:48:22;;;;;;;9.13;2.10;;;11.80;99.90;;;;;;5056281;28;20052;-77
2022/11/02 02:51:05;;;;;;;9.07;1.98;;;11.70;99.90;;;;;;5056113;28;20056;-78
2022/11/02 02:54:19;;;;;;;7.95;1.63;;;11.70;99.90;;;;;;5059942;28;20589;-77
2022/11/02 02:56:50;;;;;;;6.82;1.65;;;11.70;99.90;;;;;;5009288;28;20046;-77
2022/11/02 02:59:22;;;;;;;5.75;1.83;;;11.60;99.90;;;;;;5036722;28;20516;-76
2022/11/02 03:01:48;;;;;;;4.20;1.30;;;11.50;99.90;;;;;;5054059;28;20506;-77
2022/11/02 03:04:14;;;;;;;5.40;1.40;;;11.50;99.90;;;;;;5051564;28;20044;-77
2022/11/02 03:06:44;;;;;;;6.68;1.65;;;11.40;99.90;;;;;;5017807;28;20127;-78
2022/11/02 03:09:25;;;;;;;7.65;1.70;;;11.40;99.90;;;;;;5053196;28;20076;-77
2022/11/02 03:12:10;;;;;;;9.43;2.08;;;11.30;99.90;;;;;;5042736;28;20072;-77
2022/11/02 03:14:54;;;;;;;4.72;1.42;;;11.30;99.90;;;;;;5050797;28;20074;-77
2022/11/02 03:17:28;;;;;;;5.90;1.77;;;11.30;99.90;;;;;;5041819;28;20049;-78
2022/11/02 03:20:09;;;;;;;8.00;1.83;;;11.30;99.90;;;;;;5039536;28;20040;-77
2022/11/02 03:22:44;;;;;;;8.73;2.08;;;11.20;99.90;;;;;;5055885;28;20090;-78
2022/11/02 03:25:40;;;;;;;9.05;1.67;;;11.20;99.90;;;;;;5057446;28;20102;-78
2022/11/02 03:28:19;;;;;;;7.30;1.42;;;11.10;99.90;;;;;;5029039;28;20079;-77
2022/11/02 03:30:56;;;;;;;7.95;1.35;;;11.20;99.90;;;;;;5049146;28;20059;-77
2022/11/02 03:33:30;;;;;;;6.55;1.50;;;11.10;99.90;;;;;;5031164;28;20633;-78
2022/11/02 03:36:17;;;;;;;6.03;1.40;;;11.10;99.90;;;;;;5056695;28;20956;-78
2022/11/02 03:38:47;;;;;;;8.45;1.60;;;11.10;99.90;;;;;;5051916;28;20115;-77
2022/11/02 03:41:14;;;;;;;9.82;1.75;;;11.00;99.90;;;;;;5070995;28;20624;-78
2022/11/02 03:43:41;;;;;;;5.25;1.33;;;11.00;99.90;;;;;;5066319;28;20072;-77
2022/11/02 03:46:09;;;;;;;6.47;1.02;;;11.00;99.90;;;;;;5020412;28;20048;-78
2022/11/02 03:48:40;;;;;;;6.35;1.45;;;10.90;99.90;;;;;;5035566;28;20037;-77
2022/11/02 03:51:10;;;;;;;8.88;1.52;;;10.90;99.90;;;;;;5056651;28;20048;-78
2022/11/02 03:54:04;;;;;;;7.05;1.60;;;10.90;99.90;;;;;;5043835;28;20048;-78
2022/11/02 03:56:47;;;;;;;7.85;1.40;;;10.90;99.90;;;;;;5041607;28;20860;-77
2022/11/02 03:59:13;;;;;;;9.32;1.48;;;10.90;99.90;;;;;;5044617;28;20063;-77
2022/11/02 04:01:42;;;;;;;10.68;2.05;;;10.90;99.90;;;;;;5046803;28;20070;-78
2022/11/02 04:04:08;;;;;;;12.27;2.05;;;10.90;99.90;;;;;;5047273;28;20048;-79
2022/11/02 04:06:35;;;;;;;7.50;1.98;;;10.90;99.90;;;;;;5061396;28;20666;-77
2022/11/02 04:09:01;;;;;;;7.20;1.70;;;11.00;99.90;;;;;;5063899;28;20052;-78
2022/11/02 04:19:45;;;;;;;7.85;1.80;;;11.00;99.90;;;;;;5060166;28;20049;-80
2022/11/02 04:27:39;;;;;;;7.80;1.98;;;10.90;99.90;;;;;;5062862;28;20049;-77
2022/11/02 04:30:05;;;;;;;11.48;1.90;;;10.90;99.90;;;;;;5046305;28;20122;-76
2022/11/02 04:35:21;;;;;;;;;;;10.90;99.90;;;;;;5060029;28;20037;-76
2022/11/02 04:40:31;;;;;;;7.88;1.88;;;11.00;99.90;;;;;;5045513;28;20041;-79
2022/11/02 04:42:57;;;;;;;8.93;2.25;;;11.00;99.90;;;;;;5055375;28;20058;-77
2022/11/02 04:45:23;;;;;;;7.97;1.60;;;11.00;99.90;;;;;;5043236;28;20036;-77
2022/11/02 04:47:49;;;;;;;7.95;1.85;;;11.00;99.90;;;;;;5058543;28;20041;-77
2022/11/02 04:50:15;;;;;;;8.57;1.80;;;11.00;99.90;;;;;;5022919;28;20107;-77
2022/11/02 04:52:41;;;;;;;7.85;1.65;;;11.10;99.90;;;;;;5030268;28;20415;-77
2022/11/02 04:55:07;;;;;;;9.82;2.08;;;11.10;99.90;;;;;;5060134;28;20126;-78
2022/11/02 04:57:32;;;;;;;7.45;2.13;;;11.10;99.90;;;;;;5046225;28;20051;-77
2022/11/02 05:00:02;;;;;;;11.60;2.40;;;11.10;99.90;;;;;;5028801;28;20398;-79
2022/11/02 05:02:27;;;;;;;11.23;2.53;;;11.10;99.90;;;;;;5048500;28;20090;-78
2022/11/02 05:04:53;;;;;;;9.88;2.13;;;11.00;99.90;;;;;;5040978;28;20041;-79
2022/11/02 05:07:19;;;;;;;10.10;2.90;;;11.00;99.90;;;;;;5049384;28;20154;-78
2022/11/02 05:09:45;;;;;;;10.63;2.22;;;11.00;99.90;;;;;;5062438;28;20051;-78
2022/11/02 05:12:11;;;;;;;9.10;2.50;;;11.00;99.90;;;;;;5057445;28;20036;-78
2022/11/02 05:14:36;;;;;;;13.48;2.72;;;11.00;99.90;;;;;;5051233;28;20036;-77
2022/11/02 05:17:02;;;;;;;10.45;2.33;;;10.90;99.90;;;;;;5031760;28;20098;-77
2022/11/02 05:19:30;;;;;;;9.23;2.85;;;11.00;99.90;;;;;;5082165;28;20040;-78
2022/11/02 05:21:56;;;;;;;13.10;2.72;;;11.00;99.90;;;;;;5033519;28;20561;-78
2022/11/02 05:24:22;;;;;;;11.43;2.60;;;10.90;99.90;;;;;;5049196;28;20041;-79
2022/11/02 05:26:50;;;;;;;11.48;2.70;;;11.00;99.90;;;;;;5044109;28;20037;-78
2022/11/02 05:29:16;;;;;;;10.57;2.45;;;11.00;99.90;;;;;;5032893;28;20046;-77
2022/11/02 05:31:42;;;;;;;11.68;2.72;;;11.00;99.90;;;;;;5021400;28;20037;-78
2022/11/02 05:34:08;;;;;;;10.00;2.65;;;11.00;99.90;;;;;;5057196;28;20114;-79
2022/11/02 05:36:33;;;;;;;12.10;2.28;;;11.00;99.90;;;;;;5028776;28;20083;-78
2022/11/02 05:38:59;;;;;;;8.95;2.60;;;11.00;99.90;;;;;;5054259;28;20110;-78
2022/11/02 05:41:25;;;;;;;12.88;3.15;;;11.10;99.90;;;;;;5059089;28;20074;-80
2022/11/02 05:43:50;;;;;;;13.57;2.85;;;11.10;99.90;;;;;;5064510;28;20410;-80
2022/11/02 05:46:17;;;;;;;9.07;2.33;;;11.10;99.90;;;;;;5027180;28;20047;-79
2022/11/02 05:48:43;;;;;;;9.82;2.33;;;11.20;99.90;;;;;;5055395;28;20044;-79
2022/11/02 05:51:09;;;;;;;10.18;2.50;;;11.20;99.90;;;;;;5028382;28;20407;-79
2022/11/02 05:53:37;;;;;;;9.23;2.55;;;11.20;99.90;;;;;;5056440;28;20077;-79
2022/11/02 05:56:05;;;;;;;10.13;2.75;;;11.10;99.90;;;;;;5025154;28;20076;-79
2022/11/02 05:58:32;;;;;;;10.23;2.60;;;11.10;99.90;;;;;;5058004;28;20040;-78
2022/11/02 06:01:07;;;;;;;11.57;2.40;;;11.10;99.90;;;;;;5042212;28;20109;-78
2022/11/02 06:03:35;;;;;;;13.57;3.75;;;11.10;99.90;;;;;;5054609;28;20568;-79
2022/11/02 06:06:06;;;;;;;13.32;4.18;;;11.00;99.90;;;;;;5061060;28;20051;-78
2022/11/02 06:08:38;;;;;;;12.10;3.42;;;11.20;99.90;;;;;;5043178;28;20083;-78
2022/11/02 06:11:05;;;;;;;12.03;3.13;;;11.00;99.90;;;;;;5057259;28;20074;-79
2022/11/02 06:13:31;;;;;;;10.90;3.10;;;11.10;99.90;;;;;;5055913;28;20067;-79
2022/11/02 06:16:02;;;;;;;12.38;3.28;;;11.10;99.90;;;;;;5029373;28;20539;-79
2022/11/02 06:18:30;;;;;;;15.38;4.13;;;11.00;99.90;;;;;;5038733;28;20055;-79
2022/11/02 06:20:57;;;;;;;14.30;3.63;;;11.00;99.90;;;;;;5029396;28;20039;-78
2022/11/02 06:23:24;;;;;;;15.63;4.20;;;11.00;99.90;;;;;;5025531;28;20060;-79
2022/11/02 06:25:55;;;;;;;12.90;3.42;;;11.00;99.90;;;;;;5045416;28;20059;-79
2022/11/02 06:28:24;;;;;;;12.77;3.33;;;11.00;99.90;;;;;;5061153;28;20068;-79
2022/11/02 06:30:50;;;;;;;15.93;3.92;;;11.00;99.90;;;;;;5074038;28;20074;-79
2022/11/02 06:33:17;;;;;;;14.50;4.10;;;11.00;99.90;;;;;;5046131;28;20040;-79
2022/11/02 06:35:48;;;;;;;13.52;3.58;;;10.90;99.90;;;;;;5043934;28;20398;-78
2022/11/02 06:38:15;;;;;;;16.35;3.50;;;11.00;99.90;;;;;;5060350;28;20036;-77
2022/11/02 06:40:41;;;;;;;10.50;3.38;;;10.90;99.90;;;;;;5043361;28;20044;-79
2022/11/02 06:43:07;;;;;;;13.75;3.72;;;10.90;99.90;;;;;;5057059;28;20037;-78
2022/11/02 06:45:33;;;;;;;15.43;3.60;;;10.90;99.90;;;;;;5048597;28;20045;-81
2022/11/02 06:47:59;;;;;;;11.73;3.00;;;11.00;99.90;;;;;;5053984;28;20044;-78
2022/11/02 06:50:25;;;;;;;14.40;3.70;;;11.00;99.90;;;;;;5055664;28;20041;-78
2022/11/02 06:52:51;;;;;;;15.60;3.88;;;11.00;99.90;;;;;;5045756;28;20032;-77
2022/11/02 06:55:17;;;;;;;11.32;3.10;;;11.00;99.90;;;;;;5041808;28;20049;-78
2022/11/02 06:57:46;;;;;;;21.48;4.40;;;11.00;99.90;;;;;;5055825;28;20043;-77
2022/11/02 07:00:16;;;;;;;15.27;3.85;;;11.00;99.90;;;;;;5058036;28;20040;-77
2022/11/02 07:02:43;;;;;;;10.60;3.15;;;11.00;99.90;;;;;;5046440;28;20048;-78
2022/11/02 07:05:09;;;;;;;13.43;3.35;;;11.10;99.90;;;;;;5042417;28;20483;-78
2022/11/02 07:07:34;;;;;;;13.75;3.20;;;11.10;99.90;;;;;;5044826;28;20054;-79
2022/11/02 07:10:00;;;;;;;18.20;3.10;;;11.20;99.90;;;;;;5040616;28;20636;-79
2022/11/02 07:12:26;;;;;;;16.15;3.35;;;11.20;99.90;;;;;;5043394;28;20045;-78
2022/11/02 07:14:52;;;;;;;16.85;3.50;;;11.20;99.90;;;;;;5040609;28;20059;-79
2022/11/02 07:17:18;;;;;;;16.83;4.10;;;11.20;99.90;;;;;;5058638;28;20048;-77
2022/11/02 07:19:46;;;;;;;12.98;3.15;;;11.20;99.90;;;;;;5025282;28;20511;-80
2022/11/02 07:22:12;;;;;;;14.43;3.20;;;11.20;99.90;;;;;;5059735;28;20110;-77
2022/11/02 07:24:38;;;;;;;12.57;2.85;;;11.20;99.90;;;;;;5039000;28;20052;-76
2022/11/02 07:27:07;;;;;;;12.02;2.83;;;11.20;99.90;;;;;;5058265;28;20697;-76
2022/11/02 07:29:33;;;;;;;13.82;2.80;;;11.10;99.90;;;;;;5038779;28;20109;-76
2022/11/02 07:31:59;;;;;;;14.77;3.15;;;11.10;99.90;;;;;;5040815;28;20040;-76
2022/11/02 07:34:24;;;;;;;13.00;2.92;;;11.10;99.90;;;;;;5022827;28;20406;-76
2022/11/02 07:36:50;;;;;;;13.73;3.08;;;11.10;99.90;;;;;;5040052;28;20044;-76
2022/11/02 07:39:17;;;;;;;16.25;3.30;;;11.10;99.90;;;;;;5062274;28;20124;-77
2022/11/02 07:41:43;;;;;;;14.45;2.88;;;11.10;99.90;;;;;;5026120;28;20792;-77
2022/11/02 07:44:09;;;;;;;13.50;3.03;;;11.10;99.90;;;;;;5044057;28;20091;-77
2022/11/02 07:46:34;;;;;;;12.55;2.55;;;11.10;99.90;;;;;;5063657;28;20056;-80
2022/11/02 07:49:00;;;;;;;9.90;2.08;;;11.10;99.90;;;;;;5044340;28;20040;-77
2022/11/02 07:51:26;;;;;;;13.00;2.35;;;11.10;99.90;;;;;;5029954;28;20638;-76
2022/11/02 07:53:52;;;;;;;11.38;2.45;;;11.10;99.90;;;;;;5031206;28;20029;-77
2022/11/02 07:56:18;;;;;;;12.23;2.53;;;11.20;99.90;;;;;;5043002;28;20048;-77
2022/11/02 07:58:43;;;;;;;11.95;2.67;;;11.20;99.90;;;;;;5046241;28;20067;-76
2022/11/02 08:01:09;;;;;;;11.77;2.30;;;11.10;99.90;;;;;;5048489;28;20138;-77
2022/11/02 08:03:35;;;;;;;11.15;2.58;;;11.20;99.90;;;;;;5028431;28;20052;-76
2022/11/02 08:06:03;;;;;;;11.88;2.42;;;11.20;99.90;;;;;;5046146;28;20454;-77
2022/11/02 08:08:30;;;;;;;13.48;2.45;;;11.20;99.90;;;;;;5059048;28;20185;-77
2022/11/02 08:11:06;;;;;;;14.73;3.38;;;11.20;99.90;;;;;;5062141;28;20040;-76
2022/11/02 08:13:32;;;;;;;17.15;2.67;;;11.20;99.90;;;;;;5042769;28;20139;-77
2022/11/02 08:16:01;;;;;;;12.65;3.10;;;11.20;99.90;;;;;;5048636;28;20046;-77
2022/11/02 08:18:31;;;;;;;14.02;2.42;;;11.20;99.90;;;;;;5045453;28;20123;-76
2022/11/02 08:21:01;;;;;;;13.27;2.65;;;11.20;99.90;;;;;;5063474;28;20078;-77
2022/11/02 08:23:27;;;;;;;10.38;2.15;;;11.20;99.90;;;;;;5025036;28;20076;-77
2022/11/02 08:25:59;;;;;;;10.68;2.33;;;11.30;99.90;;;;;;5045958;28;20063;-77
2022/11/02 08:28:27;;;;;;;10.32;2.30;;;11.30;99.90;;;;;;5057887;28;20446;-77
2022/11/02 08:30:53;;;;;;;10.02;2.33;;;11.30;99.90;;;;;;5049164;28;20036;-77
2022/11/02 08:33:20;;;;;;;9.73;1.77;;;11.40;99.90;;;;;;5043151;28;20051;-77
2022/11/02 08:35:49;;;;;;;9.23;2.20;;;11.40;99.90;;;;;;5048208;28;20074;-76
2022/11/02 08:38:21;;;;;;;8.15;1.45;;;11.40;99.90;;;;;;5060282;28;20044;-77
2022/11/02 08:40:47;;;;;;;7.63;1.40;;;11.40;99.90;;;;;;5061141;28;20052;-77
2022/11/02 08:43:14;;;;;;;11.93;1.95;;;11.40;99.90;;;;;;5063619;28;20045;-76
2022/11/02 08:45:42;;;;;;;7.18;2.05;;;11.50;99.90;;;;;;5053530;28;20032;-77
2022/11/02 08:48:08;;;;;;;8.05;1.48;;;11.60;99.90;;;;;;5058557;28;20074;-77
2022/11/02 08:50:35;;;;;;;10.43;1.60;;;11.70;99.90;;;;;;5061233;28;20123;-77
2022/11/02 08:53:00;;;;;;;9.40;1.70;;;11.70;99.90;;;;;;5064141;28;20123;-77
2022/11/02 08:55:26;;;;;;;14.00;2.30;;;11.80;99.90;;;;;;5060888;28;20127;-77
2022/11/02 08:57:54;;;;;;;8.43;1.50;;;11.80;99.90;;;;;;5045743;28;20455;-77
2022/11/02 09:00:22;;;;;;;10.98;1.60;;;11.80;99.90;;;;;;5060357;28;20047;-78
2022/11/02 09:03:11;;;;;;;12.35;2.42;;;11.90;99.90;;;;;;5043090;28;20032;-77
2022/11/02 09:05:42;;;;;;;9.43;1.58;;;11.90;99.90;;;;;;5024963;28;20064;-77
2022/11/02 09:08:17;;;;;;;7.78;1.73;;;11.90;99.90;;;;;;5061081;28;20083;-78
2022/11/02 09:10:45;;;;;;;9.52;1.95;;;11.90;99.90;;;;;;5061237;28;20587;-77
2022/11/02 09:13:13;;;;;;;7.82;1.45;;;11.90;99.90;;;;;;5043668;28;20047;-77
2022/11/02 09:15:39;;;;;;;9.18;1.98;;;11.90;99.90;;;;;;5044970;28;20044;-77
2022/11/02 09:18:05;;;;;;;8.73;1.92;;;12.00;99.90;;;;;;5047136;28;20513;-78
2022/11/02 09:20:32;;;;;;;7.07;1.45;;;12.00;99.90;;;;;;5061275;28;20049;-78
2022/11/02 09:23:01;;;;;;;8.15;1.67;;;12.00;99.90;;;;;;5061110;28;20052;-78
2022/11/02 09:25:27;;;;;;;8.50;1.70;;;12.10;99.90;;;;;;5044023;28;20042;-77
2022/11/02 09:27:57;;;;;;;9.43;2.25;;;12.10;99.90;;;;;;5062891;28;20043;-78
2022/11/02 09:30:24;;;;;;;5.23;1.40;;;12.10;99.90;;;;;;5061620;28;20041;-77
2022/11/02 09:32:57;;;;;;;6.55;1.45;;;12.10;99.90;;;;;;5062617;28;20808;-77
2022/11/02 09:35:24;;;;;;;8.40;1.33;;;12.20;99.90;;;;;;5062865;28;20041;-78
2022/11/02 09:37:50;;;;;;;8.18;1.33;;;12.20;99.90;;;;;;5039403;28;20051;-77
2022/11/02 09:40:24;;;;;;;8.88;1.40;;;12.30;99.90;;;;;;5061452;28;20044;-77
2022/11/02 09:43:01;;;;;;;8.60;1.70;;;12.30;99.90;;;;;;5057997;28;20071;-76
2022/11/02 09:45:31;;;;;;;10.35;2.25;;;12.30;99.90;;;;;;5040582;28;20048;-77
2022/11/02 09:48:05;;;;;;;8.25;1.80;;;12.30;99.90;;;;;;5058947;28;20056;-77
2022/11/02 09:50:44;;;;;;;8.15;1.85;;;12.40;99.90;;;;;;5044554;28;20048;-78
2022/11/02 09:53:17;;;;;;;8.48;1.63;;;12.40;99.90;;;;;;5044836;28;20145;-78
2022/11/02 09:55:51;;;;;;;9.90;2.25;;;12.40;99.90;;;;;;5054395;28;20124;-78
2022/11/02 09:58:27;;;;;;;10.23;1.83;;;12.50;99.90;;;;;;5044283;28;20392;-78
2022/11/02 10:01:02;;;;;;;8.27;1.70;;;12.50;99.90;;;;;;5057899;28;20051;-78
2022/11/02 10:03:57;;;;;;;12.18;1.85;;;12.50;99.90;;;;;;5062372;28;20062;-78
2022/11/02 10:06:24;;;;;;;11.27;2.22;;;12.50;99.90;;;;;;5074490;28;20051;-77
2022/11/02 10:09:22;;;;;;;12.88;2.25;;;12.60;99.90;;;;;;5045930;28;20052;-78
2022/11/02 10:12:32;;;;;;;9.05;2.00;;;12.60;99.90;;;;;;5058888;28;20033;-79
2022/11/02 10:15:11;;;;;;;10.70;2.30;;;12.70;99.90;;;;;;5055112;28;20084;-78
2022/11/02 10:17:39;;;;;;;10.05;1.98;;;12.80;99.90;;;;;;5059133;28;20044;-80
2022/11/02 10:20:30;;;;;;;10.73;2.60;;;12.90;99.90;;;;;;5056604;28;20055;-79
2022/11/02 10:23:05;;;;;;;12.20;2.67;;;12.90;99.90;;;;;;5056926;28;20127;-79
2022/11/02 10:25:33;;;;;;;8.93;1.88;;;13.00;99.90;;;;;;5045883;28;20036;-78
2022/11/02 10:28:19;;;;;;;12.90;2.33;;;13.00;99.90;;;;;;5059270;28;20761;-77
2022/11/02 10:30:45;;;;;;;10.57;1.95;;;13.00;99.90;;;;;;5054661;28;20037;-78
2022/11/02 10:33:16;;;;;;;18.17;2.85;;;13.00;99.90;;;;;;5044433;28;20435;-77
2022/11/02 10:36:12;;;;;;;8.82;1.80;;;13.00;99.90;;;;;;5059690;28;20029;-79
2022/11/02 10:38:59;;;;;;;14.40;2.40;;;13.10;99.90;;;;;;5040949;28;20036;-79
2022/11/02 10:41:28;;;;;;;9.52;1.83;;;13.10;99.90;;;;;;5040510;28;20044;-78
2022/11/02 10:44:27;;;;;;;8.65;1.73;;;13.20;99.90;;;;;;5046237;28;20136;-78
2022/11/02 10:47:16;;;;;;;11.20;2.22;;;13.40;99.90;;;;;;5033630;28;20051;-78
2022/11/02 10:49:57;;;;;;;9.48;1.95;;;13.40;99.90;;;;;;5048931;28;20379;-78
2022/11/02 10:52:23;;;;;;;9.40;1.70;;;13.40;99.90;;;;;;5039991;28;20394;-78
2022/11/02 10:54:50;;;;;;;8.93;1.70;;;13.40;99.90;;;;;;5057541;28;20040;-79
2022/11/02 10:57:22;;;;;;;8.05;1.70;;;13.50;99.90;;;;;;5042151;28;20036;-79
2022/11/02 11:00:21;;;;;;;10.35;1.98;;;13.50;99.90;;;;;;5058380;28;20041;-78
2022/11/02 11:03:06;;;;;;;10.87;1.90;;;13.50;99.90;;;;;;5012910;28;20136;-78
2022/11/02 11:05:42;;;;;;;6.40;1.55;;;13.50;99.90;;;;;;5040515;28;20083;-78
2022/11/02 11:08:41;;;;;;;11.98;1.80;;;13.40;99.90;;;;;;5057971;28;20106;-79
2022/11/02 11:11:20;;;;;;;7.93;1.37;;;13.20;99.90;;;;;;5046955;28;20098;-78
2022/11/02 11:14:14;;;;;;;10.43;2.00;;;13.20;99.90;;;;;;5055628;28;20079;-78
2022/11/02 11:16:41;;;;;;;6.78;1.30;;;13.20;99.90;;;;;;5060433;28;20048;-78
2022/11/02 11:19:37;;;;;;;9.20;2.10;;;13.30;99.90;;;;;;5059854;28;20049;-77
2022/11/02 11:22:47;;;;;;;8.57;1.30;;;13.40;99.90;;;;;;5064741;28;20041;-78
2022/11/02 11:25:22;;;;;;;6.75;1.40;;;13.40;99.90;;;;;;5056294;28;20059;-78
2022/11/02 11:27:56;;;;;;;9.13;1.85;;;13.50;99.90;;;;;;5063038;28;20154;-79
2022/11/02 11:30:27;;;;;;;9.60;1.42;;;13.50;99.90;;;;;;5061918;28;20052;-79
2022/11/02 11:32:54;;;;;;;11.20;1.80;;;13.50;99.90;;;;;;5047145;28;20403;-78
2022/11/02 11:35:21;;;;;;;10.75;1.48;;;13.60;99.90;;;;;;5042579;28;20052;-79
2022/11/02 11:38:07;;;;;;;10.02;1.83;;;13.70;99.90;;;;;;5055728;28;20550;-78
2022/11/02 11:40:43;;;;;;;10.55;1.40;;;13.70;99.90;;;;;;5046027;28;20056;-78
2022/11/02 11:43:14;;;;;;;5.65;1.73;;;13.80;99.90;;;;;;5046614;28;20084;-78
2022/11/02 11:46:06;;;;;;;7.40;1.75;;;13.80;99.90;;;;;;5062217;28;20076;-78
2022/11/02 11:48:49;;;;;;;9.45;1.70;;;13.90;99.90;;;;;;5058774;28;20115;-78
2022/11/02 11:51:36;;;;;;;8.13;1.60;;;13.90;99.90;;;;;;5064083;28;20044;-78
2022/11/02 11:54:12;;;;;;;10.00;1.52;;;14.00;99.90;;;;;;5059465;28;20051;-79
2022/11/02 11:56:38;;;;;;;9.07;1.75;;;14.00;99.90;;;;;;5062112;28;20056;-79
2022/11/02 11:59:10;;;;;;;8.68;1.60;;;14.00;99.90;;;;;;5031723;28;20033;-80
2022/11/02 12:01:39;;;;;;;9.77;1.77;;;14.00;99.90;;;;;;5046275;28;20037;-79
2022/11/02 12:04:08;;;;;;;8.45;1.70;;;13.90;99.90;;;;;;5064844;28;20056;-78
2022/11/02 12:07:03;;;;;;;9.85;2.10;;;13.80;99.90;;;;;;5042775;28;20041;-79
2022/11/02 12:09:54;;;;;;;6.90;1.52;;;13.80;99.90;;;;;;5061997;28;20460;-79
2022/11/02 12:12:39;;;;;;;9.48;2.00;;;13.80;99.90;;;;;;5042562;28;20098;-79
2022/11/02 12:15:07;;;;;;;8.48;1.67;;;13.80;99.90;;;;;;5059330;28;20119;-79
2022/11/02 12:17:39;;;;;;;8.77;1.83;;;13.80;99.90;;;;;;5048611;28;20049;-79
2022/11/02 12:20:27;;;;;;;10.35;1.58;;;13.70;99.90;;;;;;5064208;28;20056;-79
2022/11/02 12:23:04;;;;;;;8.25;1.75;;;13.60;99.90;;;;;;5044312;28;20193;-79
2022/11/02 12:26:14;;;;;;;6.85;1.45;;;13.50;99.90;;;;;;5062168;28;20056;-80
2022/11/02 12:28:58;;;;;;;8.57;1.70;;;13.40;99.90;;;;;;5053182;28;20060;-79
2022/11/02 12:31:37;;;;;;;8.63;1.42;;;13.30;99.90;;;;;;5061998;28;20037;-79
2022/11/02 12:34:21;;;;;;;12.45;1.80;;;13.20;99.90;;;;;;5060089;28;20131;-80
2022/11/02 12:36:56;;;;;;;10.10;2.03;;;13.20;99.90;;;;;;5047174;28;20041;-79
2022/11/02 12:39:47;;;;;;;9.70;1.80;;;13.20;99.90;;;;;;5078850;28;20051;-79
2022/11/02 12:42:24;;;;;;;8.25;1.70;;;13.10;99.90;;;;;;5058493;28;20041;-79
2022/11/02 12:45:15;;;;;;;11.95;1.85;;;13.00;99.90;;;;;;5041787;28;20534;-78
2022/11/02 12:48:01;;;;;;;12.35;2.08;;;13.00;99.90;;;;;;5042592;28;20044;-78
2022/11/02 12:51:01;;;;;;;11.02;2.22;;;13.00;99.90;;;;;;5058381;28;20533;-79
2022/11/02 12:53:45;;;;;;;7.40;1.55;;;13.00;99.90;;;;;;5061313;28;20585;-80
2022/11/02 12:56:31;;;;;;;10.35;1.70;;;13.20;99.90;;;;;;5060600;28;20052;-79
2022/11/02 12:58:58;;;;;;;10.50;1.88;;;13.30;99.90;;;;;;5054461;28;20041;-79
2022/11/02 13:01:34;;;;;;;12.13;2.22;;;13.50;99.90;;;;;;5057723;28;20093;-78
2022/11/02 13:04:12;;;;;;;10.45;1.98;;;13.70;99.90;;;;;;5058284;28;20094;-80
2022/11/02 13:06:45;;;;;;;12.52;1.70;;;13.90;99.90;;;;;;5061711;28;20044;-79
2022/11/02 13:09:14;;;;;;;9.18;2.17;;;14.00;99.90;;;;;;5058368;28;20120;-79
2022/11/02 13:11:44;;;;;;;9.85;2.15;;;14.00;99.90;;;;;;5075747;28;20048;-79
2022/11/02 13:14:17;;;;;;;;;;;14.00;99.90;;;;;;5060511;28;20056;-79
2022/11/02 13:16:51;;;;;;;8.07;1.70;;;14.00;99.90;;;;;;5074664;28;20012;-80
2022/11/02 13:19:23;;;;;;;11.48;2.13;;;13.90;99.90;;;;;;5061446;28;20074;-79
2022/11/02 13:21:55;;;;;;;11.70;2.10;;;13.90;99.90;;;;;;5057548;28;20045;-79
2022/11/02 13:24:31;;;;;;;6.82;1.40;;;13.70;99.90;;;;;;5057541;28;20060;-80
2022/11/02 13:27:01;;;;;;;11.00;1.77;;;13.60;99.90;;;;;;5060198;28;20048;-79
2022/11/02 13:29:44;;;;;;;10.60;2.40;;;13.60;99.90;;;;;;5061633;28;20106;-80